Aviation Digital Data Service (ADDS)

Output produced by METARs form (0234 UTC 19 February 2019)
found at http://www.aviationweather.gov/metar/data/
 
METAR text: KHSE 190151Z AUTO 03004KT 10SM CLR 13/08 A3023 RMK AO2 SLP236 T01330083
Conditions at: KHSE (HATTERAS/MITCHEL, NC, US) observed 0151 UTC 19 February 2019
Temperature: 13.3°C (56°F)
Dewpoint: 8.3°C (47°F) [RH = 72%]
Pressure (altimeter): 30.23 inches Hg (1023.8 mb)
[Sea-level pressure: 1023.6 mb]
Winds: from the NNE (30 degrees) at 5 MPH (4 knots; 2.1 m/s)
Visibility: 10 or more miles (16+ km)
Ceiling: at least 12,000 feet AGL
Clouds: sky clear below 12,000 feet AGL
Weather: automated observation with no human augmentation;
there may or may not be significant weather present at this time

METAR text: KHSE 190051Z AUTO 34007KT 10SM CLR 16/09 A3019 RMK AO2 SLP222 T01610089
Conditions at: KHSE (HATTERAS/MITCHEL, NC, US) observed 0051 UTC 19 February 2019
Temperature: 16.1°C (61°F)
Dewpoint: 8.9°C (48°F) [RH = 62%]
Pressure (altimeter): 30.19 inches Hg (1022.4 mb)
[Sea-level pressure: 1022.2 mb]
Winds: from the NNW (340 degrees) at 8 MPH (7 knots; 3.6 m/s)
Visibility: 10 or more miles (16+ km)
Ceiling: at least 12,000 feet AGL
Clouds: sky clear below 12,000 feet AGL
Weather: automated observation with no human augmentation;
there may or may not be significant weather present at this time